sensor_id;sensor_type;location;lat;lon;timestamp;P1;durP1;ratioP1;P2;durP2;ratioP2
29362;SDS011;16349;53.672;10.014;2024-01-15T00:00:03;2.60;;;0.87;;
29362;SDS011;16349;53.672;10.014;2024-01-15T00:02:35;8.97;;;1.10;;
29362;SDS011;16349;53.672;10.014;2024-01-15T00:05:03;6.47;;;1.20;;
29362;SDS011;16349;53.672;10.014;2024-01-15T00:07:30;5.03;;;0.97;;
29362;SDS011;16349;53.672;10.014;2024-01-15T00:09:57;7.13;;;1.10;;
29362;SDS011;16349;53.672;10.014;2024-01-15T00:12:27;3.73;;;1.13;;
29362;SDS011;16349;53.672;10.014;2024-01-15T00:14:54;7.03;;;1.17;;
29362;SDS011;16349;53.672;10.014;2024-01-15T00:17:21;7.00;;;1.20;;
29362;SDS011;16349;53.672;10.014;2024-01-15T00:19:48;12.67;;;1.63;;
29362;SDS011;16349;53.672;10.014;2024-01-15T00:22:15;3.27;;;1.00;;
29362;SDS011;16349;53.672;10.014;2024-01-15T00:24:42;6.47;;;1.03;;
29362;SDS011;16349;53.672;10.014;2024-01-15T00:27:09;3.87;;;1.27;;
29362;SDS011;16349;53.672;10.014;2024-01-15T00:29:38;7.23;;;1.43;;
29362;SDS011;16349;53.672;10.014;2024-01-15T00:32:05;8.27;;;1.47;;
29362;SDS011;16349;53.672;10.014;2024-01-15T00:34:32;8.10;;;1.67;;
29362;SDS011;16349;53.672;10.014;2024-01-15T00:36:59;4.37;;;1.40;;
29362;SDS011;16349;53.672;10.014;2024-01-15T00:39:25;8.53;;;1.80;;
29362;SDS011;16349;53.672;10.014;2024-01-15T00:41:52;6.87;;;1.43;;
29362;SDS011;16349;53.672;10.014;2024-01-15T00:44:19;9.13;;;1.40;;
29362;SDS011;16349;53.672;10.014;2024-01-15T00:46:47;5.77;;;1.63;;
29362;SDS011;16349;53.672;10.014;2024-01-15T00:49:14;12.90;;;1.63;;
29362;SDS011;16349;53.672;10.014;2024-01-15T00:51:41;9.57;;;2.23;;
29362;SDS011;16349;53.672;10.014;2024-01-15T00:54:08;8.37;;;1.47;;
29362;SDS011;16349;53.672;10.014;2024-01-15T00:56:35;7.47;;;1.17;;
29362;SDS011;16349;53.672;10.014;2024-01-15T00:59:02;8.53;;;1.47;;
29362;SDS011;16349;53.672;10.014;2024-01-15T01:01:29;9.03;;;1.73;;
29362;SDS011;16349;53.672;10.014;2024-01-15T01:03:57;7.40;;;1.40;;
29362;SDS011;16349;53.672;10.014;2024-01-15T01:06:24;3.47;;;1.20;;
29362;SDS011;16349;53.672;10.014;2024-01-15T01:08:51;7.73;;;1.33;;
29362;SDS011;16349;53.672;10.014;2024-01-15T01:11:18;6.40;;;1.17;;
29362;SDS011;16349;53.672;10.014;2024-01-15T01:13:45;7.47;;;1.77;;
29362;SDS011;16349;53.672;10.014;2024-01-15T01:16:11;9.00;;;2.00;;
29362;SDS011;16349;53.672;10.014;2024-01-15T01:18:38;11.67;;;1.43;;
29362;SDS011;16349;53.672;10.014;2024-01-15T01:21:06;4.40;;;1.10;;
29362;SDS011;16349;53.672;10.014;2024-01-15T01:23:33;8.87;;;1.63;;
29362;SDS011;16349;53.672;10.014;2024-01-15T01:26:00;8.63;;;1.47;;
29362;SDS011;16349;53.672;10.014;2024-01-15T01:28:27;7.40;;;1.93;;
29362;SDS011;16349;53.672;10.014;2024-01-15T01:30:54;6.43;;;1.20;;
29362;SDS011;16349;53.672;10.014;2024-01-15T01:33:21;8.17;;;1.40;;
29362;SDS011;16349;53.672;10.014;2024-01-15T01:35:48;5.07;;;1.40;;
29362;SDS011;16349;53.672;10.014;2024-01-15T01:38:16;8.07;;;1.57;;
29362;SDS011;16349;53.672;10.014;2024-01-15T01:40:44;4.83;;;1.00;;
29362;SDS011;16349;53.672;10.014;2024-01-15T01:43:11;7.43;;;1.20;;
29362;SDS011;16349;53.672;10.014;2024-01-15T01:45:38;9.47;;;1.67;;
29362;SDS011;16349;53.672;10.014;2024-01-15T01:48:05;14.33;;;1.77;;
29362;SDS011;16349;53.672;10.014;2024-01-15T01:50:32;6.63;;;1.53;;
29362;SDS011;16349;53.672;10.014;2024-01-15T01:52:59;6.43;;;1.50;;
29362;SDS011;16349;53.672;10.014;2024-01-15T01:55:30;8.90;;;1.43;;
29362;SDS011;16349;53.672;10.014;2024-01-15T01:57:59;9.57;;;2.00;;
29362;SDS011;16349;53.672;10.014;2024-01-15T02:00:26;6.43;;;1.60;;
29362;SDS011;16349;53.672;10.014;2024-01-15T02:02:54;10.43;;;1.80;;
29362;SDS011;16349;53.672;10.014;2024-01-15T02:05:22;7.70;;;1.60;;
29362;SDS011;16349;53.672;10.014;2024-01-15T02:07:49;5.87;;;1.83;;
29362;SDS011;16349;53.672;10.014;2024-01-15T02:10:16;5.33;;;1.40;;
29362;SDS011;16349;53.672;10.014;2024-01-15T02:12:44;5.20;;;1.37;;
29362;SDS011;16349;53.672;10.014;2024-01-15T02:15:13;6.00;;;0.90;;
29362;SDS011;16349;53.672;10.014;2024-01-15T02:17:56;9.93;;;1.60;;
29362;SDS011;16349;53.672;10.014;2024-01-15T02:20:24;2.93;;;0.93;;
29362;SDS011;16349;53.672;10.014;2024-01-15T02:22:51;3.17;;;1.30;;
29362;SDS011;16349;53.672;10.014;2024-01-15T02:25:19;9.03;;;1.40;;
29362;SDS011;16349;53.672;10.014;2024-01-15T02:27:46;6.93;;;1.50;;
29362;SDS011;16349;53.672;10.014;2024-01-15T02:30:13;9.17;;;1.90;;
29362;SDS011;16349;53.672;10.014;2024-01-15T02:32:41;7.33;;;0.97;;
29362;SDS011;16349;53.672;10.014;2024-01-15T02:35:08;4.27;;;0.80;;
29362;SDS011;16349;53.672;10.014;2024-01-15T02:37:35;6.37;;;1.70;;
29362;SDS011;16349;53.672;10.014;2024-01-15T02:40:02;7.30;;;1.33;;
29362;SDS011;16349;53.672;10.014;2024-01-15T02:42:31;9.37;;;1.93;;
29362;SDS011;16349;53.672;10.014;2024-01-15T02:44:58;8.03;;;1.20;;
29362;SDS011;16349;53.672;10.014;2024-01-15T02:47:24;5.77;;;1.00;;
29362;SDS011;16349;53.672;10.014;2024-01-15T02:49:51;4.47;;;1.13;;
29362;SDS011;16349;53.672;10.014;2024-01-15T02:52:18;5.83;;;1.30;;
29362;SDS011;16349;53.672;10.014;2024-01-15T02:54:45;5.97;;;2.10;;
29362;SDS011;16349;53.672;10.014;2024-01-15T02:57:12;8.80;;;1.40;;
29362;SDS011;16349;53.672;10.014;2024-01-15T02:59:40;9.83;;;2.00;;
29362;SDS011;16349;53.672;10.014;2024-01-15T03:02:07;7.13;;;1.50;;
29362;SDS011;16349;53.672;10.014;2024-01-15T03:04:33;9.17;;;1.57;;
29362;SDS011;16349;53.672;10.014;2024-01-15T03:07:00;9.47;;;1.50;;
29362;SDS011;16349;53.672;10.014;2024-01-15T03:09:27;12.80;;;1.63;;
29362;SDS011;16349;53.672;10.014;2024-01-15T03:11:54;11.30;;;1.60;;
29362;SDS011;16349;53.672;10.014;2024-01-15T03:14:22;9.10;;;1.50;;
29362;SDS011;16349;53.672;10.014;2024-01-15T03:16:52;13.33;;;2.10;;
29362;SDS011;16349;53.672;10.014;2024-01-15T03:19:18;4.50;;;1.13;;
29362;SDS011;16349;53.672;10.014;2024-01-15T03:21:45;9.30;;;2.00;;
29362;SDS011;16349;53.672;10.014;2024-01-15T03:24:12;8.13;;;1.37;;
29362;SDS011;16349;53.672;10.014;2024-01-15T03:26:39;14.30;;;1.60;;
29362;SDS011;16349;53.672;10.014;2024-01-15T03:29:06;10.77;;;2.77;;
29362;SDS011;16349;53.672;10.014;2024-01-15T03:31:33;3.87;;;1.90;;
29362;SDS011;16349;53.672;10.014;2024-01-15T03:34:01;11.97;;;1.80;;
29362;SDS011;16349;53.672;10.014;2024-01-15T03:36:28;6.97;;;1.83;;
29362;SDS011;16349;53.672;10.014;2024-01-15T03:38:55;9.90;;;1.60;;
29362;SDS011;16349;53.672;10.014;2024-01-15T03:41:22;13.37;;;2.20;;
29362;SDS011;16349;53.672;10.014;2024-01-15T03:43:49;17.90;;;2.63;;
29362;SDS011;16349;53.672;10.014;2024-01-15T03:46:15;10.17;;;2.80;;
29362;SDS011;16349;53.672;10.014;2024-01-15T03:48:42;15.93;;;2.97;;
29362;SDS011;16349;53.672;10.014;2024-01-15T03:51:10;8.10;;;2.27;;
29362;SDS011;16349;53.672;10.014;2024-01-15T03:53:37;26.47;;;2.30;;
29362;SDS011;16349;53.672;10.014;2024-01-15T03:56:04;15.93;;;2.20;;
29362;SDS011;16349;53.672;10.014;2024-01-15T03:58:31;15.17;;;2.10;;
29362;SDS011;16349;53.672;10.014;2024-01-15T04:00:58;10.80;;;1.93;;
29362;SDS011;16349;53.672;10.014;2024-01-15T04:03:25;11.77;;;3.63;;
29362;SDS011;16349;53.672;10.014;2024-01-15T04:05:52;12.50;;;1.77;;
29362;SDS011;16349;53.672;10.014;2024-01-15T04:08:20;11.00;;;2.17;;
29362;SDS011;16349;53.672;10.014;2024-01-15T04:10:47;10.27;;;1.93;;
29362;SDS011;16349;53.672;10.014;2024-01-15T04:13:13;13.13;;;1.80;;
29362;SDS011;16349;53.672;10.014;2024-01-15T04:15:40;12.00;;;2.20;;
29362;SDS011;16349;53.672;10.014;2024-01-15T04:18:07;12.53;;;2.33;;
29362;SDS011;16349;53.672;10.014;2024-01-15T04:20:34;15.37;;;1.93;;
29362;SDS011;16349;53.672;10.014;2024-01-15T04:23:01;17.07;;;2.97;;
29362;SDS011;16349;53.672;10.014;2024-01-15T04:25:29;12.50;;;2.87;;
29362;SDS011;16349;53.672;10.014;2024-01-15T04:27:57;10.33;;;1.77;;
29362;SDS011;16349;53.672;10.014;2024-01-15T04:30:24;13.60;;;2.70;;
29362;SDS011;16349;53.672;10.014;2024-01-15T04:32:51;11.73;;;2.10;;
29362;SDS011;16349;53.672;10.014;2024-01-15T04:35:18;10.07;;;2.50;;
29362;SDS011;16349;53.672;10.014;2024-01-15T04:37:44;12.03;;;2.13;;
29362;SDS011;16349;53.672;10.014;2024-01-15T04:40:11;21.57;;;2.50;;
29362;SDS011;16349;53.672;10.014;2024-01-15T04:42:40;10.80;;;2.10;;
29362;SDS011;16349;53.672;10.014;2024-01-15T04:45:07;9.90;;;2.07;;
29362;SDS011;16349;53.672;10.014;2024-01-15T04:47:35;17.40;;;2.83;;
29362;SDS011;16349;53.672;10.014;2024-01-15T04:50:03;12.90;;;2.07;;
29362;SDS011;16349;53.672;10.014;2024-01-15T04:52:30;19.33;;;2.97;;
29362;SDS011;16349;53.672;10.014;2024-01-15T04:54:57;21.47;;;3.23;;
29362;SDS011;16349;53.672;10.014;2024-01-15T04:57:24;14.57;;;2.80;;
29362;SDS011;16349;53.672;10.014;2024-01-15T04:59:52;10.73;;;2.50;;
29362;SDS011;16349;53.672;10.014;2024-01-15T05:02:19;15.53;;;2.10;;
29362;SDS011;16349;53.672;10.014;2024-01-15T05:04:46;17.20;;;3.70;;
29362;SDS011;16349;53.672;10.014;2024-01-15T05:07:13;13.60;;;2.77;;
29362;SDS011;16349;53.672;10.014;2024-01-15T05:09:40;20.07;;;2.90;;
29362;SDS011;16349;53.672;10.014;2024-01-15T05:12:07;18.33;;;2.73;;
29362;SDS011;16349;53.672;10.014;2024-01-15T05:14:34;21.00;;;2.83;;
29362;SDS011;16349;53.672;10.014;2024-01-15T05:17:02;17.93;;;3.70;;
29362;SDS011;16349;53.672;10.014;2024-01-15T05:19:29;18.57;;;2.97;;
29362;SDS011;16349;53.672;10.014;2024-01-15T05:21:56;19.37;;;3.60;;
29362;SDS011;16349;53.672;10.014;2024-01-15T05:24:23;16.73;;;3.33;;
29362;SDS011;16349;53.672;10.014;2024-01-15T05:26:51;18.13;;;3.03;;
29362;SDS011;16349;53.672;10.014;2024-01-15T05:29:18;19.97;;;3.53;;
29362;SDS011;16349;53.672;10.014;2024-01-15T05:31:45;27.07;;;4.30;;
29362;SDS011;16349;53.672;10.014;2024-01-15T05:34:13;14.80;;;2.77;;
29362;SDS011;16349;53.672;10.014;2024-01-15T05:36:40;15.57;;;2.87;;
29362;SDS011;16349;53.672;10.014;2024-01-15T05:39:07;19.47;;;2.73;;
29362;SDS011;16349;53.672;10.014;2024-01-15T05:41:34;25.13;;;3.77;;
29362;SDS011;16349;53.672;10.014;2024-01-15T05:44:00;16.27;;;2.97;;
29362;SDS011;16349;53.672;10.014;2024-01-15T05:46:27;13.33;;;3.23;;
29362;SDS011;16349;53.672;10.014;2024-01-15T05:48:54;18.43;;;3.33;;
29362;SDS011;16349;53.672;10.014;2024-01-15T05:51:22;19.00;;;3.13;;
29362;SDS011;16349;53.672;10.014;2024-01-15T05:53:49;20.10;;;3.57;;
29362;SDS011;16349;53.672;10.014;2024-01-15T05:56:16;15.53;;;2.67;;
29362;SDS011;16349;53.672;10.014;2024-01-15T05:58:43;16.67;;;3.40;;
29362;SDS011;16349;53.672;10.014;2024-01-15T06:01:10;11.50;;;3.00;;
29362;SDS011;16349;53.672;10.014;2024-01-15T06:03:37;11.17;;;2.43;;
29362;SDS011;16349;53.672;10.014;2024-01-15T06:06:04;25.30;;;2.70;;
29362;SDS011;16349;53.672;10.014;2024-01-15T06:08:32;23.00;;;3.03;;
29362;SDS011;16349;53.672;10.014;2024-01-15T06:10:59;20.83;;;3.23;;
29362;SDS011;16349;53.672;10.014;2024-01-15T06:13:26;14.70;;;3.43;;
29362;SDS011;16349;53.672;10.014;2024-01-15T06:15:53;16.73;;;2.67;;
29362;SDS011;16349;53.672;10.014;2024-01-15T06:18:19;18.53;;;3.00;;
29362;SDS011;16349;53.672;10.014;2024-01-15T06:20:46;21.70;;;3.13;;
29362;SDS011;16349;53.672;10.014;2024-01-15T06:23:13;13.63;;;2.10;;
29362;SDS011;16349;53.672;10.014;2024-01-15T06:25:42;11.57;;;2.27;;
29362;SDS011;16349;53.672;10.014;2024-01-15T06:28:09;17.30;;;2.17;;
29362;SDS011;16349;53.672;10.014;2024-01-15T06:30:36;5.47;;;1.60;;
29362;SDS011;16349;53.672;10.014;2024-01-15T06:33:04;6.67;;;1.70;;
29362;SDS011;16349;53.672;10.014;2024-01-15T06:35:31;6.07;;;0.90;;
29362;SDS011;16349;53.672;10.014;2024-01-15T06:37:59;3.13;;;1.43;;
29362;SDS011;16349;53.672;10.014;2024-01-15T06:40:26;9.73;;;1.43;;
29362;SDS011;16349;53.672;10.014;2024-01-15T06:42:54;8.63;;;1.13;;
29362;SDS011;16349;53.672;10.014;2024-01-15T06:45:21;3.53;;;1.07;;
29362;SDS011;16349;53.672;10.014;2024-01-15T06:47:47;4.20;;;1.17;;
29362;SDS011;16349;53.672;10.014;2024-01-15T06:50:14;3.57;;;1.07;;
29362;SDS011;16349;53.672;10.014;2024-01-15T06:52:41;6.37;;;1.10;;
29362;SDS011;16349;53.672;10.014;2024-01-15T06:55:08;9.03;;;1.10;;
29362;SDS011;16349;53.672;10.014;2024-01-15T06:57:35;2.73;;;0.97;;
29362;SDS011;16349;53.672;10.014;2024-01-15T07:00:03;3.40;;;1.00;;
29362;SDS011;16349;53.672;10.014;2024-01-15T07:02:33;4.33;;;0.80;;
29362;SDS011;16349;53.672;10.014;2024-01-15T07:05:00;5.20;;;1.33;;
29362;SDS011;16349;53.672;10.014;2024-01-15T07:07:26;9.73;;;1.53;;
29362;SDS011;16349;53.672;10.014;2024-01-15T07:09:54;5.47;;;0.80;;
29362;SDS011;16349;53.672;10.014;2024-01-15T07:12:23;5.17;;;0.90;;
29362;SDS011;16349;53.672;10.014;2024-01-15T07:14:50;4.70;;;1.17;;
29362;SDS011;16349;53.672;10.014;2024-01-15T07:17:18;7.23;;;0.93;;
29362;SDS011;16349;53.672;10.014;2024-01-15T07:19:45;5.07;;;0.93;;
29362;SDS011;16349;53.672;10.014;2024-01-15T07:22:12;7.93;;;1.40;;
29362;SDS011;16349;53.672;10.014;2024-01-15T07:24:40;6.83;;;1.00;;
29362;SDS011;16349;53.672;10.014;2024-01-15T07:27:07;4.87;;;0.80;;
29362;SDS011;16349;53.672;10.014;2024-01-15T07:29:34;3.07;;;1.50;;
29362;SDS011;16349;53.672;10.014;2024-01-15T07:32:02;3.67;;;1.07;;
29362;SDS011;16349;53.672;10.014;2024-01-15T07:34:31;6.33;;;1.40;;
29362;SDS011;16349;53.672;10.014;2024-01-15T07:36:58;7.53;;;1.10;;
29362;SDS011;16349;53.672;10.014;2024-01-15T07:39:25;8.07;;;1.40;;
29362;SDS011;16349;53.672;10.014;2024-01-15T07:41:53;3.70;;;1.10;;
29362;SDS011;16349;53.672;10.014;2024-01-15T07:44:20;10.20;;;1.10;;
29362;SDS011;16349;53.672;10.014;2024-01-15T07:46:47;7.37;;;1.10;;
29362;SDS011;16349;53.672;10.014;2024-01-15T07:49:14;4.87;;;1.43;;
29362;SDS011;16349;53.672;10.014;2024-01-15T07:51:43;9.93;;;1.50;;
29362;SDS011;16349;53.672;10.014;2024-01-15T07:54:10;4.63;;;1.20;;
29362;SDS011;16349;53.672;10.014;2024-01-15T07:59:19;4.67;;;1.03;;
29362;SDS011;16349;53.672;10.014;2024-01-15T08:01:46;2.57;;;0.90;;
29362;SDS011;16349;53.672;10.014;2024-01-15T08:04:13;4.33;;;0.93;;
29362;SDS011;16349;53.672;10.014;2024-01-15T08:06:40;6.67;;;1.07;;
29362;SDS011;16349;53.672;10.014;2024-01-15T08:09:08;4.50;;;0.93;;
29362;SDS011;16349;53.672;10.014;2024-01-15T08:11:35;6.67;;;1.20;;
29362;SDS011;16349;53.672;10.014;2024-01-15T08:14:02;6.63;;;1.10;;
29362;SDS011;16349;53.672;10.014;2024-01-15T08:16:29;2.33;;;0.70;;
29362;SDS011;16349;53.672;10.014;2024-01-15T08:18:56;3.00;;;1.10;;
29362;SDS011;16349;53.672;10.014;2024-01-15T08:21:22;7.03;;;1.30;;
29362;SDS011;16349;53.672;10.014;2024-01-15T08:23:49;4.37;;;0.70;;
29362;SDS011;16349;53.672;10.014;2024-01-15T08:26:18;7.80;;;1.23;;
29362;SDS011;16349;53.672;10.014;2024-01-15T08:28:46;4.43;;;0.93;;
29362;SDS011;16349;53.672;10.014;2024-01-15T08:31:13;6.40;;;0.90;;
29362;SDS011;16349;53.672;10.014;2024-01-15T08:33:40;11.30;;;1.37;;
29362;SDS011;16349;53.672;10.014;2024-01-15T08:36:08;8.97;;;1.87;;
29362;SDS011;16349;53.672;10.014;2024-01-15T08:38:35;13.80;;;1.60;;
29362;SDS011;16349;53.672;10.014;2024-01-15T08:41:02;7.13;;;1.20;;
29362;SDS011;16349;53.672;10.014;2024-01-15T08:43:31;8.57;;;1.30;;
29362;SDS011;16349;53.672;10.014;2024-01-15T08:45:57;5.87;;;1.10;;
29362;SDS011;16349;53.672;10.014;2024-01-15T08:48:24;9.23;;;1.20;;
29362;SDS011;16349;53.672;10.014;2024-01-15T08:50:52;6.43;;;1.27;;
29362;SDS011;16349;53.672;10.014;2024-01-15T08:53:19;3.23;;;1.50;;
29362;SDS011;16349;53.672;10.014;2024-01-15T08:55:46;3.70;;;1.00;;
29362;SDS011;16349;53.672;10.014;2024-01-15T08:58:14;6.47;;;1.10;;
29362;SDS011;16349;53.672;10.014;2024-01-15T09:00:42;7.93;;;1.50;;
29362;SDS011;16349;53.672;10.014;2024-01-15T09:03:09;4.40;;;1.00;;
29362;SDS011;16349;53.672;10.014;2024-01-15T09:05:37;4.37;;;1.40;;
29362;SDS011;16349;53.672;10.014;2024-01-15T09:08:04;5.33;;;1.20;;
29362;SDS011;16349;53.672;10.014;2024-01-15T09:10:31;7.97;;;1.80;;
29362;SDS011;16349;53.672;10.014;2024-01-15T09:12:57;5.97;;;1.30;;
29362;SDS011;16349;53.672;10.014;2024-01-15T09:15:25;5.73;;;1.10;;
29362;SDS011;16349;53.672;10.014;2024-01-15T09:17:54;5.70;;;1.07;;
29362;SDS011;16349;53.672;10.014;2024-01-15T09:20:22;4.10;;;1.07;;
29362;SDS011;16349;53.672;10.014;2024-01-15T09:22:51;9.40;;;1.10;;
29362;SDS011;16349;53.672;10.014;2024-01-15T09:25:17;6.10;;;1.30;;
29362;SDS011;16349;53.672;10.014;2024-01-15T09:27:45;5.03;;;1.30;;
29362;SDS011;16349;53.672;10.014;2024-01-15T09:30:12;5.00;;;1.17;;
29362;SDS011;16349;53.672;10.014;2024-01-15T09:32:39;5.43;;;1.37;;
29362;SDS011;16349;53.672;10.014;2024-01-15T09:35:07;4.10;;;1.07;;
29362;SDS011;16349;53.672;10.014;2024-01-15T09:37:35;4.60;;;1.10;;
29362;SDS011;16349;53.672;10.014;2024-01-15T09:40:03;9.37;;;1.40;;
29362;SDS011;16349;53.672;10.014;2024-01-15T09:42:31;9.87;;;1.33;;
29362;SDS011;16349;53.672;10.014;2024-01-15T09:44:59;10.80;;;1.60;;
29362;SDS011;16349;53.672;10.014;2024-01-15T09:47:26;1.97;;;0.83;;
29362;SDS011;16349;53.672;10.014;2024-01-15T09:49:53;5.17;;;1.17;;
29362;SDS011;16349;53.672;10.014;2024-01-15T09:52:22;12.47;;;1.57;;
29362;SDS011;16349;53.672;10.014;2024-01-15T09:54:50;6.13;;;1.07;;
29362;SDS011;16349;53.672;10.014;2024-01-15T09:57:18;4.03;;;1.30;;
29362;SDS011;16349;53.672;10.014;2024-01-15T09:59:45;6.23;;;1.30;;
29362;SDS011;16349;53.672;10.014;2024-01-15T10:02:13;7.20;;;1.20;;
29362;SDS011;16349;53.672;10.014;2024-01-15T10:04:43;3.20;;;1.00;;
29362;SDS011;16349;53.672;10.014;2024-01-15T10:07:09;7.83;;;1.57;;
29362;SDS011;16349;53.672;10.014;2024-01-15T10:09:42;8.00;;;1.40;;
29362;SDS011;16349;53.672;10.014;2024-01-15T10:12:09;9.73;;;1.60;;
29362;SDS011;16349;53.672;10.014;2024-01-15T10:14:38;5.60;;;1.27;;
29362;SDS011;16349;53.672;10.014;2024-01-15T10:17:12;9.00;;;2.27;;
29362;SDS011;16349;53.672;10.014;2024-01-15T10:19:40;9.83;;;2.03;;
29362;SDS011;16349;53.672;10.014;2024-01-15T10:22:07;7.20;;;1.77;;
29362;SDS011;16349;53.672;10.014;2024-01-15T10:24:35;8.73;;;2.07;;
29362;SDS011;16349;53.672;10.014;2024-01-15T10:27:07;6.03;;;1.73;;
29362;SDS011;16349;53.672;10.014;2024-01-15T10:29:35;6.83;;;1.57;;
29362;SDS011;16349;53.672;10.014;2024-01-15T10:32:02;6.70;;;1.53;;
29362;SDS011;16349;53.672;10.014;2024-01-15T10:34:32;6.73;;;1.37;;
29362;SDS011;16349;53.672;10.014;2024-01-15T10:36:59;11.13;;;1.50;;
29362;SDS011;16349;53.672;10.014;2024-01-15T10:39:28;6.37;;;1.20;;
29362;SDS011;16349;53.672;10.014;2024-01-15T10:41:55;7.43;;;1.70;;
29362;SDS011;16349;53.672;10.014;2024-01-15T10:44:23;8.10;;;1.60;;
29362;SDS011;16349;53.672;10.014;2024-01-15T10:46:51;10.90;;;1.57;;
29362;SDS011;16349;53.672;10.014;2024-01-15T10:49:18;6.83;;;1.13;;
29362;SDS011;16349;53.672;10.014;2024-01-15T10:51:46;3.90;;;1.27;;
29362;SDS011;16349;53.672;10.014;2024-01-15T10:54:14;6.43;;;1.43;;
29362;SDS011;16349;53.672;10.014;2024-01-15T10:56:42;6.47;;;1.20;;
29362;SDS011;16349;53.672;10.014;2024-01-15T10:59:11;4.43;;;0.90;;
29362;SDS011;16349;53.672;10.014;2024-01-15T11:01:41;6.07;;;1.30;;
29362;SDS011;16349;53.672;10.014;2024-01-15T11:04:08;7.43;;;1.63;;
29362;SDS011;16349;53.672;10.014;2024-01-15T11:06:42;9.57;;;1.43;;
29362;SDS011;16349;53.672;10.014;2024-01-15T11:09:11;6.43;;;1.90;;
29362;SDS011;16349;53.672;10.014;2024-01-15T11:11:40;4.77;;;1.17;;
29362;SDS011;16349;53.672;10.014;2024-01-15T11:14:07;4.80;;;1.30;;
29362;SDS011;16349;53.672;10.014;2024-01-15T11:19:21;6.17;;;1.50;;
29362;SDS011;16349;53.672;10.014;2024-01-15T11:21:48;7.13;;;1.50;;
29362;SDS011;16349;53.672;10.014;2024-01-15T11:27:01;4.73;;;1.03;;
29362;SDS011;16349;53.672;10.014;2024-01-15T11:29:29;5.30;;;1.10;;
29362;SDS011;16349;53.672;10.014;2024-01-15T11:32:02;8.77;;;1.73;;
29362;SDS011;16349;53.672;10.014;2024-01-15T11:34:50;4.57;;;1.73;;
29362;SDS011;16349;53.672;10.014;2024-01-15T11:37:18;6.57;;;1.13;;
29362;SDS011;16349;53.672;10.014;2024-01-15T11:39:45;9.30;;;1.57;;
29362;SDS011;16349;53.672;10.014;2024-01-15T11:42:13;3.80;;;1.33;;
29362;SDS011;16349;53.672;10.014;2024-01-15T11:44:40;4.23;;;1.30;;
29362;SDS011;16349;53.672;10.014;2024-01-15T11:47:09;6.90;;;1.77;;
29362;SDS011;16349;53.672;10.014;2024-01-15T11:52:25;6.20;;;2.20;;
29362;SDS011;16349;53.672;10.014;2024-01-15T11:54:54;4.80;;;1.60;;
29362;SDS011;16349;53.672;10.014;2024-01-15T11:57:29;5.63;;;1.58;;
29362;SDS011;16349;53.672;10.014;2024-01-15T12:00:03;2.57;;;1.30;;
29362;SDS011;16349;53.672;10.014;2024-01-15T12:02:39;4.80;;;1.20;;
29362;SDS011;16349;53.672;10.014;2024-01-15T12:05:07;6.63;;;1.30;;
29362;SDS011;16349;53.672;10.014;2024-01-15T12:07:34;4.87;;;1.43;;
29362;SDS011;16349;53.672;10.014;2024-01-15T12:10:01;4.47;;;1.23;;
29362;SDS011;16349;53.672;10.014;2024-01-15T12:12:31;4.17;;;1.20;;
29362;SDS011;16349;53.672;10.014;2024-01-15T12:15:04;2.97;;;1.00;;
29362;SDS011;16349;53.672;10.014;2024-01-15T12:17:31;5.73;;;1.07;;
29362;SDS011;16349;53.672;10.014;2024-01-15T12:19:59;2.73;;;1.00;;
29362;SDS011;16349;53.672;10.014;2024-01-15T12:22:26;3.20;;;0.90;;
29362;SDS011;16349;53.672;10.014;2024-01-15T12:24:53;1.90;;;1.00;;
29362;SDS011;16349;53.672;10.014;2024-01-15T12:27:20;2.57;;;0.77;;
29362;SDS011;16349;53.672;10.014;2024-01-15T12:29:48;3.93;;;0.60;;
29362;SDS011;16349;53.672;10.014;2024-01-15T12:32:14;2.27;;;0.60;;
29362;SDS011;16349;53.672;10.014;2024-01-15T12:34:41;2.63;;;0.70;;
29362;SDS011;16349;53.672;10.014;2024-01-15T12:37:10;3.10;;;0.67;;
29362;SDS011;16349;53.672;10.014;2024-01-15T12:39:37;1.60;;;0.77;;
29362;SDS011;16349;53.672;10.014;2024-01-15T12:42:04;4.23;;;0.70;;
29362;SDS011;16349;53.672;10.014;2024-01-15T12:44:31;2.20;;;0.43;;
29362;SDS011;16349;53.672;10.014;2024-01-15T12:46:58;1.57;;;0.60;;
29362;SDS011;16349;53.672;10.014;2024-01-15T12:49:25;7.93;;;0.90;;
29362;SDS011;16349;53.672;10.014;2024-01-15T12:51:52;4.93;;;1.07;;
29362;SDS011;16349;53.672;10.014;2024-01-15T12:54:21;2.57;;;1.57;;
29362;SDS011;16349;53.672;10.014;2024-01-15T12:56:48;2.77;;;0.90;;
29362;SDS011;16349;53.672;10.014;2024-01-15T12:59:16;2.87;;;0.80;;
29362;SDS011;16349;53.672;10.014;2024-01-15T13:01:42;2.23;;;0.90;;
29362;SDS011;16349;53.672;10.014;2024-01-15T13:04:10;1.57;;;0.70;;
29362;SDS011;16349;53.672;10.014;2024-01-15T13:06:36;3.03;;;0.80;;
29362;SDS011;16349;53.672;10.014;2024-01-15T13:09:03;1.80;;;0.77;;
29362;SDS011;16349;53.672;10.014;2024-01-15T13:11:32;1.07;;;0.53;;
29362;SDS011;16349;53.672;10.014;2024-01-15T13:13:59;3.73;;;0.60;;
29362;SDS011;16349;53.672;10.014;2024-01-15T13:16:26;4.50;;;0.87;;
29362;SDS011;16349;53.672;10.014;2024-01-15T13:18:54;3.17;;;0.90;;
29362;SDS011;16349;53.672;10.014;2024-01-15T13:21:21;3.47;;;0.70;;
29362;SDS011;16349;53.672;10.014;2024-01-15T13:23:48;4.37;;;1.10;;
29362;SDS011;16349;53.672;10.014;2024-01-15T13:26:15;3.27;;;0.83;;
29362;SDS011;16349;53.672;10.014;2024-01-15T13:28:44;2.80;;;1.00;;
29362;SDS011;16349;53.672;10.014;2024-01-15T13:31:11;1.67;;;0.70;;
29362;SDS011;16349;53.672;10.014;2024-01-15T13:33:39;3.33;;;1.37;;
29362;SDS011;16349;53.672;10.014;2024-01-15T13:36:06;4.63;;;1.10;;
29362;SDS011;16349;53.672;10.014;2024-01-15T13:38:35;3.07;;;1.23;;
29362;SDS011;16349;53.672;10.014;2024-01-15T13:41:03;0.90;;;0.70;;
29362;SDS011;16349;53.672;10.014;2024-01-15T13:43:31;4.07;;;0.97;;
29362;SDS011;16349;53.672;10.014;2024-01-15T13:45:59;1.97;;;0.90;;
29362;SDS011;16349;53.672;10.014;2024-01-15T13:48:29;7.10;;;1.00;;
29362;SDS011;16349;53.672;10.014;2024-01-15T13:50:57;2.03;;;0.90;;
29362;SDS011;16349;53.672;10.014;2024-01-15T13:53:24;2.73;;;0.90;;
29362;SDS011;16349;53.672;10.014;2024-01-15T13:55:52;1.50;;;1.00;;
29362;SDS011;16349;53.672;10.014;2024-01-15T13:58:18;2.00;;;0.90;;
29362;SDS011;16349;53.672;10.014;2024-01-15T14:00:46;4.07;;;0.70;;
29362;SDS011;16349;53.672;10.014;2024-01-15T14:03:15;2.37;;;0.80;;
29362;SDS011;16349;53.672;10.014;2024-01-15T14:05:41;1.70;;;0.70;;
29362;SDS011;16349;53.672;10.014;2024-01-15T14:08:09;1.27;;;0.47;;
29362;SDS011;16349;53.672;10.014;2024-01-15T14:10:36;1.37;;;0.60;;
29362;SDS011;16349;53.672;10.014;2024-01-15T14:13:03;1.37;;;0.83;;
29362;SDS011;16349;53.672;10.014;2024-01-15T14:15:30;2.90;;;0.97;;
29362;SDS011;16349;53.672;10.014;2024-01-15T14:17:57;1.57;;;0.70;;
29362;SDS011;16349;53.672;10.014;2024-01-15T14:20:26;1.60;;;0.50;;
29362;SDS011;16349;53.672;10.014;2024-01-15T14:22:53;1.30;;;0.60;;
29362;SDS011;16349;53.672;10.014;2024-01-15T14:25:20;6.80;;;0.87;;
29362;SDS011;16349;53.672;10.014;2024-01-15T14:27:47;5.00;;;0.80;;
29362;SDS011;16349;53.672;10.014;2024-01-15T14:30:15;4.10;;;0.80;;
29362;SDS011;16349;53.672;10.014;2024-01-15T14:32:42;3.60;;;0.73;;
29362;SDS011;16349;53.672;10.014;2024-01-15T14:35:09;2.93;;;0.50;;
29362;SDS011;16349;53.672;10.014;2024-01-15T14:37:38;2.70;;;0.60;;
29362;SDS011;16349;53.672;10.014;2024-01-15T14:40:05;2.57;;;0.70;;
29362;SDS011;16349;53.672;10.014;2024-01-15T14:42:33;2.40;;;0.70;;